createdAt,value
2023-03-04T00:04:02.213Z,2.05
2023-03-04T00:09:04.804Z,2.00
2023-03-04T00:14:06.444Z,1.90
2023-03-04T00:19:08.099Z,1.65
2023-03-04T00:24:09.880Z,1.70
2023-03-04T00:29:11.479Z,1.92
2023-03-04T00:34:13.431Z,2.50
2023-03-04T00:39:15.687Z,1.45
2023-03-04T00:44:17.314Z,1.75
2023-03-04T00:49:18.994Z,1.98
2023-03-04T00:54:20.588Z,1.65
2023-03-04T00:59:22.261Z,2.42
2023-03-04T01:04:24.163Z,1.90
2023-03-04T01:09:26.885Z,1.70
2023-03-04T01:14:29.770Z,2.15
2023-03-04T01:19:31.523Z,1.50
2023-03-04T01:24:34.079Z,1.60
2023-03-04T01:29:35.720Z,1.50
2023-03-04T01:34:37.415Z,1.85
2023-03-04T01:39:39.469Z,2.08
2023-03-04T01:44:41.326Z,1.60
2023-03-04T01:49:43.087Z,1.73
2023-03-04T01:54:44.807Z,1.88
2023-03-04T01:59:47.831Z,1.88
2023-03-04T02:04:49.520Z,2.13
2023-03-04T02:09:51.149Z,1.75
2023-03-04T02:14:52.971Z,1.48
2023-03-04T02:20:09.999Z,1.67
2023-03-04T02:25:16.818Z,2.13
2023-03-04T02:30:22.629Z,2.22
2023-03-04T02:35:24.705Z,1.60
2023-03-04T02:40:33.384Z,1.83
2023-03-04T02:45:46.497Z,1.33
2023-03-04T02:50:52.242Z,1.70
2023-03-04T02:55:54.045Z,1.27
2023-03-04T03:00:57.993Z,1.48
2023-03-04T03:06:02.348Z,1.83
2023-03-04T03:11:05.158Z,1.75
2023-03-04T03:16:08.379Z,1.42
2023-03-04T03:21:10.097Z,1.45
2023-03-04T03:26:12.256Z,1.15
2023-03-04T03:31:14.704Z,1.70
2023-03-04T03:36:21.502Z,1.75
2023-03-04T03:41:23.252Z,2.20
2023-03-04T03:46:24.899Z,2.00
2023-03-04T03:51:26.781Z,1.73
2023-03-04T03:56:28.350Z,1.80
2023-03-04T04:01:30.036Z,1.30
2023-03-04T04:06:31.747Z,1.50
2023-03-04T04:11:33.486Z,1.70
2023-03-04T04:16:35.145Z,1.42
2023-03-04T04:21:36.780Z,1.50
2023-03-04T04:26:38.444Z,1.60
2023-03-04T04:31:40.785Z,1.83
2023-03-04T04:36:42.670Z,1.20
2023-03-04T04:41:46.047Z,1.35
2023-03-04T04:46:47.682Z,1.70
2023-03-04T04:51:49.341Z,1.60
2023-03-04T04:56:51.071Z,1.75
2023-03-04T05:01:52.685Z,1.60
2023-03-04T05:06:54.338Z,1.33
2023-03-04T05:11:56.016Z,1.45
2023-03-04T05:16:57.673Z,1.60
2023-03-04T05:21:59.505Z,1.33
2023-03-04T05:27:02.253Z,1.55
2023-03-04T05:32:04.045Z,1.15
2023-03-04T05:37:05.917Z,2.03
2023-03-04T05:42:07.583Z,1.40
2023-03-04T05:47:09.244Z,1.50
2023-03-04T05:52:11.381Z,0.95
2023-03-04T05:57:13.125Z,0.80
2023-03-04T06:02:14.789Z,1.00
2023-03-04T06:07:16.451Z,1.15
2023-03-04T06:12:18.119Z,0.95
2023-03-04T06:17:19.786Z,1.30
2023-03-04T06:22:21.449Z,1.10
2023-03-04T06:27:23.158Z,1.17
2023-03-04T06:32:25.159Z,1.20
2023-03-04T06:37:26.922Z,1.40
2023-03-04T06:42:28.507Z,1.50
2023-03-04T06:47:30.554Z,1.65
2023-03-04T06:52:32.247Z,1.30
2023-03-04T06:57:34.017Z,0.90
2023-03-04T07:02:35.761Z,1.60
2023-03-04T07:07:38.091Z,1.73
2023-03-04T07:12:39.989Z,2.05
2023-03-04T07:17:41.656Z,1.88
2023-03-04T07:22:43.286Z,1.23
2023-03-04T07:27:44.955Z,1.30
2023-03-04T07:32:46.727Z,0.98
2023-03-04T07:37:49.314Z,1.20
2023-03-04T07:42:52.534Z,0.80
2023-03-04T07:47:54.392Z,0.50
2023-03-04T07:52:56.186Z,1.30
2023-03-04T07:57:58.221Z,0.80
2023-03-04T08:03:00.034Z,0.77
2023-03-04T08:08:01.794Z,0.77
2023-03-04T08:13:03.519Z,0.50
2023-03-04T08:18:05.242Z,0.63
2023-03-04T08:23:07.642Z,1.02
2023-03-04T08:28:12.975Z,0.77
2023-03-04T08:33:14.700Z,0.50
2023-03-04T08:38:16.482Z,0.90
2023-03-04T08:43:18.074Z,1.17
2023-03-04T08:48:20.226Z,0.77
2023-03-04T08:53:22.214Z,0.75
2023-03-04T08:58:23.933Z,1.30
2023-03-04T09:03:26.023Z,1.00
2023-03-04T09:08:28.066Z,0.73
2023-03-04T09:13:31.696Z,0.93
2023-03-04T09:18:33.407Z,0.80
2023-03-04T09:23:36.053Z,0.70
2023-03-04T09:28:38.104Z,0.80
2023-03-04T09:33:41.640Z,0.98
2023-03-04T09:38:43.822Z,1.67
2023-03-04T09:43:49.919Z,1.08
2023-03-04T09:48:54.942Z,1.13
2023-03-04T09:54:04.029Z,1.10
2023-03-04T09:59:17.528Z,1.50
2023-03-04T10:04:41.138Z,1.10
2023-03-04T10:09:58.635Z,1.20
2023-03-04T10:15:34.467Z,1.45
2023-03-04T10:20:52.501Z,0.80
2023-03-04T10:25:55.067Z,0.90
2023-03-04T10:31:26.326Z,1.40
2023-03-04T10:36:31.103Z,1.60
2023-03-04T10:41:33.672Z,0.80
2023-03-04T10:46:49.435Z,1.73
2023-03-04T10:51:55.961Z,1.63
2023-03-04T10:57:14.431Z,2.40
2023-03-04T11:02:21.745Z,2.70
2023-03-04T11:07:27.323Z,2.00
2023-03-04T11:12:34.209Z,2.10
2023-03-04T11:17:44.149Z,2.45
2023-03-04T11:22:46.730Z,1.70
2023-03-04T11:27:54.243Z,2.30
2023-03-04T11:33:06.323Z,1.13
2023-03-04T11:38:21.070Z,1.45
2023-03-04T11:43:30.228Z,1.30
2023-03-04T11:48:48.506Z,0.90
2023-03-04T11:53:58.972Z,1.13
2023-03-04T11:59:04.478Z,0.80
2023-03-04T12:04:32.123Z,1.50
2023-03-04T12:09:58.466Z,1.25
2023-03-04T12:15:13.457Z,2.25
2023-03-04T12:20:40.574Z,0.93
2023-03-04T12:26:04.153Z,1.17
2023-03-04T12:31:43.301Z,2.15
2023-03-04T12:37:22.401Z,1.35
2023-03-04T12:42:46.285Z,2.30
2023-03-04T12:48:12.740Z,1.70
2023-03-04T12:53:22.788Z,1.90
2023-03-04T13:04:06.035Z,1.95
2023-03-04T13:09:14.837Z,2.33
2023-03-04T13:14:18.335Z,2.45
2023-03-04T13:19:46.480Z,3.15
2023-03-04T13:24:52.336Z,2.25
2023-03-04T13:29:54.469Z,2.05
2023-03-04T13:34:57.739Z,1.70
2023-03-04T13:40:38.118Z,2.30
2023-03-04T13:45:40.355Z,1.70
2023-03-04T13:50:48.412Z,2.60
2023-03-04T13:56:07.033Z,2.28
2023-03-04T14:01:25.055Z,1.67
2023-03-04T14:06:29.855Z,1.30
2023-03-04T14:11:41.824Z,1.50
2023-03-04T14:16:52.971Z,1.15
2023-03-04T14:21:55.592Z,1.35
2023-03-04T14:27:11.873Z,1.13
2023-03-04T14:32:13.640Z,0.60
2023-03-04T14:37:26.900Z,1.00
2023-03-04T14:42:38.817Z,0.95
2023-03-04T14:47:47.496Z,1.27
2023-03-04T14:52:52.082Z,1.45
2023-03-04T14:58:05.858Z,1.20
2023-03-04T15:03:21.625Z,1.20
2023-03-04T15:08:37.515Z,1.83
2023-03-04T15:13:45.078Z,2.03
2023-03-04T15:19:23.499Z,1.58
2023-03-04T15:24:25.149Z,1.10
2023-03-04T15:29:26.824Z,1.77
2023-03-04T15:34:28.491Z,2.28
2023-03-04T15:39:30.242Z,1.33
2023-03-04T15:44:32.113Z,1.83
2023-03-04T15:49:33.793Z,1.40
2023-03-04T15:54:35.572Z,1.83
2023-03-04T15:59:37.631Z,1.65
2023-03-04T16:04:39.403Z,1.38
2023-03-04T16:09:41.257Z,1.60
2023-03-04T16:14:44.375Z,11.07
2023-03-04T16:19:46.684Z,1.98
2023-03-04T16:24:48.785Z,2.13
2023-03-04T16:29:51.319Z,1.48
2023-03-04T16:34:52.983Z,1.15
2023-03-04T16:39:54.753Z,1.10
2023-03-04T16:44:56.930Z,1.13
2023-03-04T16:49:58.975Z,1.45
2023-03-04T16:55:00.759Z,1.50
2023-03-04T17:00:02.643Z,1.85
2023-03-04T17:05:04.853Z,2.15
2023-03-04T17:10:06.843Z,2.58
2023-03-04T17:15:14.552Z,2.28
2023-03-04T17:20:18.855Z,2.17
2023-03-04T17:25:21.667Z,1.67
2023-03-04T17:30:23.530Z,2.47
2023-03-04T17:35:25.941Z,2.38
2023-03-04T17:40:27.666Z,3.08
2023-03-04T17:45:29.403Z,3.13
2023-03-04T17:50:31.244Z,2.47
2023-03-04T17:55:32.896Z,2.38
2023-03-04T18:00:34.718Z,3.05
2023-03-04T18:05:36.447Z,2.67
2023-03-04T18:10:38.216Z,3.60
2023-03-04T18:15:40.014Z,2.15
2023-03-04T18:20:41.782Z,2.70
2023-03-04T18:25:43.546Z,3.13
2023-03-04T18:30:45.269Z,3.22
2023-03-04T18:35:47.262Z,3.17
2023-03-04T18:40:49.070Z,2.75
2023-03-04T18:46:00.443Z,5.05
2023-03-04T18:51:02.801Z,6.60
2023-03-04T18:56:12.245Z,3.95
2023-03-04T19:01:16.936Z,3.25
2023-03-04T19:06:19.064Z,4.47
2023-03-04T19:11:22.893Z,2.75
2023-03-04T19:16:25.058Z,2.60
2023-03-04T19:21:26.741Z,2.42
2023-03-04T19:26:28.390Z,2.30
2023-03-04T19:31:30.176Z,2.55
2023-03-04T19:36:32.159Z,3.90
2023-03-04T19:41:33.872Z,4.13
2023-03-04T19:46:35.639Z,3.80
2023-03-04T19:51:37.428Z,3.40
2023-03-04T19:56:39.361Z,3.58
2023-03-04T20:01:42.707Z,4.03
2023-03-04T20:06:46.857Z,3.00
2023-03-04T20:11:58.139Z,5.05
2023-03-04T20:17:02.753Z,4.15
2023-03-04T20:22:05.736Z,4.28
2023-03-04T20:27:07.539Z,3.78
2023-03-04T20:32:09.853Z,4.78
2023-03-04T20:37:11.944Z,7.25
2023-03-04T20:42:13.587Z,4.38
2023-03-04T20:47:15.299Z,4.05
2023-03-04T20:52:18.841Z,10.00
2023-03-04T20:57:20.572Z,4.47
2023-03-04T21:02:23.585Z,6.38
2023-03-04T21:07:26.407Z,5.13
2023-03-04T21:12:28.253Z,4.63
2023-03-04T21:17:30.062Z,4.68
2023-03-04T21:22:31.668Z,4.25
2023-03-04T21:27:38.733Z,5.07
2023-03-04T21:32:41.174Z,5.15
2023-03-04T21:37:43.159Z,4.35
2023-03-04T21:42:44.842Z,5.95
2023-03-04T21:47:46.790Z,5.22
2023-03-04T21:52:48.464Z,5.00
2023-03-04T21:57:50.160Z,5.90
2023-03-04T22:02:51.906Z,4.43
2023-03-04T22:07:53.658Z,4.25
2023-03-04T22:12:55.268Z,3.55
2023-03-04T22:17:56.977Z,3.80
2023-03-04T22:22:58.785Z,3.80
2023-03-04T22:28:00.442Z,3.13
2023-03-04T22:33:02.431Z,2.47
2023-03-04T22:38:04.117Z,3.58
2023-03-04T22:43:05.906Z,2.65
2023-03-04T22:48:07.472Z,2.95
2023-03-04T22:53:09.139Z,2.38
2023-03-04T22:58:10.730Z,2.50
2023-03-04T23:03:12.893Z,2.47
2023-03-04T23:08:14.904Z,2.28
2023-03-04T23:13:16.596Z,2.15
2023-03-04T23:18:18.824Z,3.00
2023-03-04T23:23:20.466Z,2.35
2023-03-04T23:28:22.093Z,2.45
2023-03-04T23:33:23.879Z,1.75
2023-03-04T23:38:26.593Z,1.98
2023-03-04T23:43:30.125Z,3.00
2023-03-04T23:48:31.862Z,1.52
2023-03-04T23:53:34.527Z,2.28
2023-03-04T23:58:36.407Z,1.60
